sensor_id;sensor_type;location;lat;lon;timestamp;P1;durP1;ratioP1;P2;durP2;ratioP2
34920;SDS011;21128;50.016;20.002;2022-09-29T00:01:41;3.77;;;2.25;;
34920;SDS011;21128;50.016;20.002;2022-09-29T00:04:09;2.93;;;2.43;;
34920;SDS011;21128;50.016;20.002;2022-09-29T00:06:36;2.55;;;1.92;;
34920;SDS011;21128;50.016;20.002;2022-09-29T00:09:03;3.93;;;2.37;;
34920;SDS011;21128;50.016;20.002;2022-09-29T00:11:37;3.80;;;2.47;;
34920;SDS011;21128;50.016;20.002;2022-09-29T00:14:04;3.35;;;2.67;;
34920;SDS011;21128;50.016;20.002;2022-09-29T00:16:31;4.70;;;2.70;;
34920;SDS011;21128;50.016;20.002;2022-09-29T00:18:58;4.50;;;2.60;;
34920;SDS011;21128;50.016;20.002;2022-09-29T00:21:25;3.07;;;1.97;;
34920;SDS011;21128;50.016;20.002;2022-09-29T00:23:52;4.07;;;2.57;;
34920;SDS011;21128;50.016;20.002;2022-09-29T00:26:20;4.13;;;2.87;;
34920;SDS011;21128;50.016;20.002;2022-09-29T00:28:50;3.30;;;2.90;;
34920;SDS011;21128;50.016;20.002;2022-09-29T00:31:19;7.27;;;3.00;;
34920;SDS011;21128;50.016;20.002;2022-09-29T00:33:54;5.90;;;3.27;;
34920;SDS011;21128;50.016;20.002;2022-09-29T00:36:28;5.83;;;3.17;;
34920;SDS011;21128;50.016;20.002;2022-09-29T00:39:10;5.00;;;3.10;;
34920;SDS011;21128;50.016;20.002;2022-09-29T00:41:37;4.27;;;3.23;;
34920;SDS011;21128;50.016;20.002;2022-09-29T00:47:34;8.80;;;3.77;;
34920;SDS011;21128;50.016;20.002;2022-09-29T00:52:41;7.90;;;4.43;;
34920;SDS011;21128;50.016;20.002;2022-09-29T00:55:14;6.15;;;4.25;;
34920;SDS011;21128;50.016;20.002;2022-09-29T01:00:23;6.07;;;4.27;;
34920;SDS011;21128;50.016;20.002;2022-09-29T01:03:02;7.90;;;5.20;;
34920;SDS011;21128;50.016;20.002;2022-09-29T01:05:36;5.90;;;4.17;;
34920;SDS011;21128;50.016;20.002;2022-09-29T01:08:33;5.80;;;4.80;;
34920;SDS011;21128;50.016;20.002;2022-09-29T01:11:17;6.30;;;4.20;;
34920;SDS011;21128;50.016;20.002;2022-09-29T01:13:47;6.73;;;4.77;;
34920;SDS011;21128;50.016;20.002;2022-09-29T01:16:22;7.37;;;5.10;;
34920;SDS011;21128;50.016;20.002;2022-09-29T01:19:05;9.53;;;5.67;;
34920;SDS011;21128;50.016;20.002;2022-09-29T01:33:36;12.47;;;7.37;;
34920;SDS011;21128;50.016;20.002;2022-09-29T01:37:04;11.63;;;7.23;;
34920;SDS011;21128;50.016;20.002;2022-09-29T01:39:47;12.70;;;7.40;;
34920;SDS011;21128;50.016;20.002;2022-09-29T01:42:44;14.80;;;7.67;;
34920;SDS011;21128;50.016;20.002;2022-09-29T01:45:48;13.67;;;7.17;;
34920;SDS011;21128;50.016;20.002;2022-09-29T01:48:24;14.97;;;7.23;;
34920;SDS011;21128;50.016;20.002;2022-09-29T01:50:57;11.77;;;7.10;;
34920;SDS011;21128;50.016;20.002;2022-09-29T01:56:02;13.15;;;7.05;;
34920;SDS011;21128;50.016;20.002;2022-09-29T01:58:37;10.33;;;7.20;;
34920;SDS011;21128;50.016;20.002;2022-09-29T02:01:14;12.03;;;8.30;;
34920;SDS011;21128;50.016;20.002;2022-09-29T02:03:56;11.78;;;7.37;;
34920;SDS011;21128;50.016;20.002;2022-09-29T02:06:54;14.30;;;8.23;;
34920;SDS011;21128;50.016;20.002;2022-09-29T02:09:37;11.10;;;7.97;;
34920;SDS011;21128;50.016;20.002;2022-09-29T02:12:08;13.30;;;8.00;;
34920;SDS011;21128;50.016;20.002;2022-09-29T02:14:41;13.87;;;8.70;;
34920;SDS011;21128;50.016;20.002;2022-09-29T02:17:25;14.07;;;8.77;;
34920;SDS011;21128;50.016;20.002;2022-09-29T02:20:04;9.33;;;6.97;;
34920;SDS011;21128;50.016;20.002;2022-09-29T02:22:38;10.70;;;7.47;;
34920;SDS011;21128;50.016;20.002;2022-09-29T02:25:13;13.43;;;8.40;;
34920;SDS011;21128;50.016;20.002;2022-09-29T02:27:42;13.53;;;8.33;;
34920;SDS011;21128;50.016;20.002;2022-09-29T02:30:17;10.03;;;7.67;;
34920;SDS011;21128;50.016;20.002;2022-09-29T02:32:57;11.70;;;7.60;;
34920;SDS011;21128;50.016;20.002;2022-09-29T02:35:45;10.87;;;7.53;;
34920;SDS011;21128;50.016;20.002;2022-09-29T02:38:29;12.13;;;7.10;;
34920;SDS011;21128;50.016;20.002;2022-09-29T02:56:06;13.13;;;7.73;;
34920;SDS011;21128;50.016;20.002;2022-09-29T02:58:51;14.13;;;7.80;;
34920;SDS011;21128;50.016;20.002;2022-09-29T03:01:47;15.45;;;10.35;;
34920;SDS011;21128;50.016;20.002;2022-09-29T03:04:16;15.33;;;9.10;;
34920;SDS011;21128;50.016;20.002;2022-09-29T03:06:45;13.07;;;7.90;;
34920;SDS011;21128;50.016;20.002;2022-09-29T03:09:12;12.85;;;8.60;;
34920;SDS011;21128;50.016;20.002;2022-09-29T03:11:52;12.77;;;8.63;;
34920;SDS011;21128;50.016;20.002;2022-09-29T03:14:33;17.40;;;9.03;;
34920;SDS011;21128;50.016;20.002;2022-09-29T03:16:59;14.13;;;8.63;;
34920;SDS011;21128;50.016;20.002;2022-09-29T03:19:26;16.52;;;8.58;;
34920;SDS011;21128;50.016;20.002;2022-09-29T03:21:53;12.37;;;7.97;;
34920;SDS011;21128;50.016;20.002;2022-09-29T03:24:20;12.90;;;8.43;;
34920;SDS011;21128;50.016;20.002;2022-09-29T03:26:47;11.75;;;8.15;;
34920;SDS011;21128;50.016;20.002;2022-09-29T03:29:14;13.65;;;7.00;;
34920;SDS011;21128;50.016;20.002;2022-09-29T03:31:41;11.40;;;8.05;;
34920;SDS011;21128;50.016;20.002;2022-09-29T03:34:14;13.20;;;9.40;;
34920;SDS011;21128;50.016;20.002;2022-09-29T03:36:55;14.50;;;9.10;;
34920;SDS011;21128;50.016;20.002;2022-09-29T03:39:29;13.23;;;9.10;;
34920;SDS011;21128;50.016;20.002;2022-09-29T03:41:56;17.23;;;11.90;;
34920;SDS011;21128;50.016;20.002;2022-09-29T03:44:23;14.83;;;9.73;;
34920;SDS011;21128;50.016;20.002;2022-09-29T03:46:50;13.38;;;9.15;;
34920;SDS011;21128;50.016;20.002;2022-09-29T03:49:17;19.40;;;10.63;;
34920;SDS011;21128;50.016;20.002;2022-09-29T03:51:44;16.40;;;10.07;;
34920;SDS011;21128;50.016;20.002;2022-09-29T03:54:11;15.53;;;10.00;;
34920;SDS011;21128;50.016;20.002;2022-09-29T03:56:38;19.65;;;11.85;;
34920;SDS011;21128;50.016;20.002;2022-09-29T03:59:05;16.40;;;9.78;;
34920;SDS011;21128;50.016;20.002;2022-09-29T04:01:34;17.50;;;10.90;;
34920;SDS011;21128;50.016;20.002;2022-09-29T04:04:03;18.33;;;10.67;;
34920;SDS011;21128;50.016;20.002;2022-09-29T04:06:39;18.87;;;10.83;;
34920;SDS011;21128;50.016;20.002;2022-09-29T04:09:06;17.77;;;10.13;;
34920;SDS011;21128;50.016;20.002;2022-09-29T04:11:33;15.95;;;9.85;;
34920;SDS011;21128;50.016;20.002;2022-09-29T04:13:59;14.33;;;9.90;;
34920;SDS011;21128;50.016;20.002;2022-09-29T04:16:27;16.42;;;10.05;;
34920;SDS011;21128;50.016;20.002;2022-09-29T04:18:53;15.50;;;9.87;;
34920;SDS011;21128;50.016;20.002;2022-09-29T04:21:20;19.33;;;12.80;;
34920;SDS011;21128;50.016;20.002;2022-09-29T04:23:48;20.77;;;9.10;;
34920;SDS011;21128;50.016;20.002;2022-09-29T04:26:15;14.63;;;9.00;;
34920;SDS011;21128;50.016;20.002;2022-09-29T04:28:42;14.83;;;8.17;;
34920;SDS011;21128;50.016;20.002;2022-09-29T04:31:16;14.73;;;8.17;;
34920;SDS011;21128;50.016;20.002;2022-09-29T04:33:43;12.15;;;6.85;;
34920;SDS011;21128;50.016;20.002;2022-09-29T04:36:09;18.23;;;8.15;;
34920;SDS011;21128;50.016;20.002;2022-09-29T04:38:37;12.60;;;7.77;;
34920;SDS011;21128;50.016;20.002;2022-09-29T04:41:10;15.88;;;7.92;;
34920;SDS011;21128;50.016;20.002;2022-09-29T04:43:37;12.60;;;7.80;;
34920;SDS011;21128;50.016;20.002;2022-09-29T04:46:05;13.10;;;7.33;;
34920;SDS011;21128;50.016;20.002;2022-09-29T04:48:33;13.97;;;6.90;;
34920;SDS011;21128;50.016;20.002;2022-09-29T04:51:01;12.83;;;7.43;;
34920;SDS011;21128;50.016;20.002;2022-09-29T04:53:28;22.93;;;8.30;;
34920;SDS011;21128;50.016;20.002;2022-09-29T04:55:56;19.70;;;7.90;;
34920;SDS011;21128;50.016;20.002;2022-09-29T04:58:22;11.00;;;7.33;;
34920;SDS011;21128;50.016;20.002;2022-09-29T05:00:49;9.63;;;6.63;;
34920;SDS011;21128;50.016;20.002;2022-09-29T05:03:16;12.68;;;7.17;;
34920;SDS011;21128;50.016;20.002;2022-09-29T05:05:43;14.93;;;7.43;;
34920;SDS011;21128;50.016;20.002;2022-09-29T05:08:10;9.93;;;7.37;;
34920;SDS011;21128;50.016;20.002;2022-09-29T05:10:44;13.47;;;6.93;;
34920;SDS011;21128;50.016;20.002;2022-09-29T05:13:13;10.60;;;6.67;;
34920;SDS011;21128;50.016;20.002;2022-09-29T05:15:46;9.83;;;6.00;;
34920;SDS011;21128;50.016;20.002;2022-09-29T05:18:13;8.85;;;5.47;;
34920;SDS011;21128;50.016;20.002;2022-09-29T05:20:40;9.77;;;6.53;;
34920;SDS011;21128;50.016;20.002;2022-09-29T05:23:07;9.23;;;5.77;;
34920;SDS011;21128;50.016;20.002;2022-09-29T05:25:35;12.17;;;5.50;;
34920;SDS011;21128;50.016;20.002;2022-09-29T05:28:03;10.50;;;5.87;;
34920;SDS011;21128;50.016;20.002;2022-09-29T05:30:30;10.60;;;6.13;;
34920;SDS011;21128;50.016;20.002;2022-09-29T05:32:57;10.25;;;6.15;;
34920;SDS011;21128;50.016;20.002;2022-09-29T05:35:30;10.57;;;6.73;;
34920;SDS011;21128;50.016;20.002;2022-09-29T05:37:57;11.77;;;7.07;;
34920;SDS011;21128;50.016;20.002;2022-09-29T05:40:24;10.80;;;5.95;;
34920;SDS011;21128;50.016;20.002;2022-09-29T05:42:52;10.87;;;5.50;;
34920;SDS011;21128;50.016;20.002;2022-09-29T05:45:26;8.60;;;6.37;;
34920;SDS011;21128;50.016;20.002;2022-09-29T05:48:00;10.00;;;6.70;;
34920;SDS011;21128;50.016;20.002;2022-09-29T05:50:27;14.00;;;6.05;;
34920;SDS011;21128;50.016;20.002;2022-09-29T05:52:54;11.00;;;6.53;;
34920;SDS011;21128;50.016;20.002;2022-09-29T05:55:21;8.87;;;6.53;;
34920;SDS011;21128;50.016;20.002;2022-09-29T05:57:49;12.53;;;6.05;;
34920;SDS011;21128;50.016;20.002;2022-09-29T06:00:16;12.23;;;5.97;;
34920;SDS011;21128;50.016;20.002;2022-09-29T06:02:43;9.33;;;4.60;;
34920;SDS011;21128;50.016;20.002;2022-09-29T06:05:10;8.23;;;5.13;;
34920;SDS011;21128;50.016;20.002;2022-09-29T06:07:37;11.77;;;5.33;;
34920;SDS011;21128;50.016;20.002;2022-09-29T06:10:04;11.87;;;5.23;;
34920;SDS011;21128;50.016;20.002;2022-09-29T06:12:35;14.97;;;5.93;;
34920;SDS011;21128;50.016;20.002;2022-09-29T06:15:09;13.95;;;5.30;;
34920;SDS011;21128;50.016;20.002;2022-09-29T06:17:36;8.80;;;5.77;;
34920;SDS011;21128;50.016;20.002;2022-09-29T06:20:04;12.35;;;4.95;;
34920;SDS011;21128;50.016;20.002;2022-09-29T06:22:35;7.80;;;4.93;;
34920;SDS011;21128;50.016;20.002;2022-09-29T06:25:02;9.90;;;6.07;;
34920;SDS011;21128;50.016;20.002;2022-09-29T06:27:30;9.13;;;5.90;;
34920;SDS011;21128;50.016;20.002;2022-09-29T06:29:57;8.88;;;4.97;;
34920;SDS011;21128;50.016;20.002;2022-09-29T06:32:23;9.87;;;5.80;;
34920;SDS011;21128;50.016;20.002;2022-09-29T06:34:50;11.63;;;5.23;;
34920;SDS011;21128;50.016;20.002;2022-09-29T06:37:42;6.20;;;4.33;;
34920;SDS011;21128;50.016;20.002;2022-09-29T06:40:12;8.70;;;4.43;;
34920;SDS011;21128;50.016;20.002;2022-09-29T06:42:39;7.37;;;4.33;;
34920;SDS011;21128;50.016;20.002;2022-09-29T06:45:12;12.07;;;5.83;;
34920;SDS011;21128;50.016;20.002;2022-09-29T06:47:39;8.35;;;5.55;;
34920;SDS011;21128;50.016;20.002;2022-09-29T06:50:06;8.33;;;4.90;;
34920;SDS011;21128;50.016;20.002;2022-09-29T06:52:35;14.45;;;6.55;;
34920;SDS011;21128;50.016;20.002;2022-09-29T06:55:02;16.77;;;6.30;;
34920;SDS011;21128;50.016;20.002;2022-09-29T06:57:30;13.50;;;6.30;;
34920;SDS011;21128;50.016;20.002;2022-09-29T06:59:57;16.00;;;6.10;;
34920;SDS011;21128;50.016;20.002;2022-09-29T07:02:23;11.75;;;6.20;;
34920;SDS011;21128;50.016;20.002;2022-09-29T07:04:51;10.00;;;4.93;;
34920;SDS011;21128;50.016;20.002;2022-09-29T07:07:18;7.23;;;4.40;;
34920;SDS011;21128;50.016;20.002;2022-09-29T07:09:45;9.30;;;3.75;;
34920;SDS011;21128;50.016;20.002;2022-09-29T07:12:12;10.20;;;4.37;;
34920;SDS011;21128;50.016;20.002;2022-09-29T07:14:39;6.80;;;2.90;;
34920;SDS011;21128;50.016;20.002;2022-09-29T07:19:40;8.17;;;3.50;;
34920;SDS011;21128;50.016;20.002;2022-09-29T07:22:07;5.92;;;3.55;;
34920;SDS011;21128;50.016;20.002;2022-09-29T07:24:35;7.83;;;4.40;;
34920;SDS011;21128;50.016;20.002;2022-09-29T07:27:01;7.95;;;3.90;;
34920;SDS011;21128;50.016;20.002;2022-09-29T07:29:28;9.63;;;4.47;;
34920;SDS011;21128;50.016;20.002;2022-09-29T07:31:58;9.33;;;4.27;;
34920;SDS011;21128;50.016;20.002;2022-09-29T07:34:25;8.10;;;4.60;;
34920;SDS011;21128;50.016;20.002;2022-09-29T07:36:52;6.47;;;4.03;;
34920;SDS011;21128;50.016;20.002;2022-09-29T07:39:25;11.90;;;4.10;;
34920;SDS011;21128;50.016;20.002;2022-09-29T07:41:52;6.40;;;3.40;;
34920;SDS011;21128;50.016;20.002;2022-09-29T07:44:27;6.57;;;3.97;;
34920;SDS011;21128;50.016;20.002;2022-09-29T07:46:55;4.40;;;3.27;;
34920;SDS011;21128;50.016;20.002;2022-09-29T07:49:22;5.17;;;3.40;;
34920;SDS011;21128;50.016;20.002;2022-09-29T07:51:49;4.30;;;3.43;;
34920;SDS011;21128;50.016;20.002;2022-09-29T07:54:16;6.50;;;3.20;;
34920;SDS011;21128;50.016;20.002;2022-09-29T07:56:43;5.00;;;3.57;;
34920;SDS011;21128;50.016;20.002;2022-09-29T07:59:10;7.53;;;3.58;;
34920;SDS011;21128;50.016;20.002;2022-09-29T08:01:37;6.03;;;3.47;;
34920;SDS011;21128;50.016;20.002;2022-09-29T08:04:04;4.80;;;3.30;;
34920;SDS011;21128;50.016;20.002;2022-09-29T08:06:31;4.40;;;3.30;;
34920;SDS011;21128;50.016;20.002;2022-09-29T08:08:59;5.28;;;3.58;;
34920;SDS011;21128;50.016;20.002;2022-09-29T08:11:27;5.27;;;3.03;;
34920;SDS011;21128;50.016;20.002;2022-09-29T08:14:09;7.93;;;4.50;;
34920;SDS011;21128;50.016;20.002;2022-09-29T08:16:37;8.10;;;4.23;;
34920;SDS011;21128;50.016;20.002;2022-09-29T08:19:04;7.37;;;3.70;;
34920;SDS011;21128;50.016;20.002;2022-09-29T08:21:38;6.30;;;3.40;;
34920;SDS011;21128;50.016;20.002;2022-09-29T08:24:05;6.97;;;3.45;;
34920;SDS011;21128;50.016;20.002;2022-09-29T08:26:34;7.07;;;3.87;;
34920;SDS011;21128;50.016;20.002;2022-09-29T08:29:04;4.93;;;3.60;;
34920;SDS011;21128;50.016;20.002;2022-09-29T08:31:30;7.10;;;4.10;;
34920;SDS011;21128;50.016;20.002;2022-09-29T08:33:59;9.17;;;4.97;;
34920;SDS011;21128;50.016;20.002;2022-09-29T08:36:26;6.08;;;3.35;;
34920;SDS011;21128;50.016;20.002;2022-09-29T08:41:52;4.10;;;3.20;;
34920;SDS011;21128;50.016;20.002;2022-09-29T08:44:36;3.60;;;2.90;;
34920;SDS011;21128;50.016;20.002;2022-09-29T08:47:36;3.77;;;2.90;;
34920;SDS011;21128;50.016;20.002;2022-09-29T08:53:04;3.67;;;2.20;;
34920;SDS011;21128;50.016;20.002;2022-09-29T08:58:16;4.43;;;2.57;;
34920;SDS011;21128;50.016;20.002;2022-09-29T09:09:45;3.70;;;1.57;;
34920;SDS011;21128;50.016;20.002;2022-09-29T09:20:32;3.20;;;1.60;;
34920;SDS011;21128;50.016;20.002;2022-09-29T09:23:07;3.70;;;2.20;;
34920;SDS011;21128;50.016;20.002;2022-09-29T09:28:54;2.77;;;1.87;;
34920;SDS011;21128;50.016;20.002;2022-09-29T09:31:32;5.37;;;2.27;;
34920;SDS011;21128;50.016;20.002;2022-09-29T09:34:10;3.17;;;2.40;;
34920;SDS011;21128;50.016;20.002;2022-09-29T09:36:47;4.10;;;2.03;;
34920;SDS011;21128;50.016;20.002;2022-09-29T09:39:34;3.50;;;1.92;;
34920;SDS011;21128;50.016;20.002;2022-09-29T09:42:19;6.00;;;2.07;;
34920;SDS011;21128;50.016;20.002;2022-09-29T09:45:02;7.13;;;2.17;;
34920;SDS011;21128;50.016;20.002;2022-09-29T09:47:37;3.97;;;2.13;;
34920;SDS011;21128;50.016;20.002;2022-09-29T09:50:41;3.87;;;2.20;;
34920;SDS011;21128;50.016;20.002;2022-09-29T09:53:11;4.63;;;2.20;;
34920;SDS011;21128;50.016;20.002;2022-09-29T09:55:41;1.35;;;1.05;;
34920;SDS011;21128;50.016;20.002;2022-09-29T09:58:17;2.45;;;1.40;;
34920;SDS011;21128;50.016;20.002;2022-09-29T10:00:56;2.90;;;1.60;;
34920;SDS011;21128;50.016;20.002;2022-09-29T10:03:32;6.93;;;2.30;;
34920;SDS011;21128;50.016;20.002;2022-09-29T10:06:14;2.93;;;1.50;;
34920;SDS011;21128;50.016;20.002;2022-09-29T10:08:48;7.00;;;1.30;;
34920;SDS011;21128;50.016;20.002;2022-09-29T10:11:35;3.07;;;1.30;;
34920;SDS011;21128;50.016;20.002;2022-09-29T10:14:14;4.70;;;1.70;;
34920;SDS011;21128;50.016;20.002;2022-09-29T10:17:01;2.80;;;1.47;;
34920;SDS011;21128;50.016;20.002;2022-09-29T10:22:21;2.73;;;0.90;;
34920;SDS011;21128;50.016;20.002;2022-09-29T10:25:38;3.20;;;1.20;;
34920;SDS011;21128;50.016;20.002;2022-09-29T10:27:52;2.10;;;0.75;;
34920;SDS011;21128;50.016;20.002;2022-09-29T10:30:32;2.30;;;1.30;;
34920;SDS011;21128;50.016;20.002;2022-09-29T10:33:01;1.40;;;0.87;;
34920;SDS011;21128;50.016;20.002;2022-09-29T10:35:38;6.63;;;1.27;;
34920;SDS011;21128;50.016;20.002;2022-09-29T10:38:25;3.20;;;1.43;;
34920;SDS011;21128;50.016;20.002;2022-09-29T10:41:05;2.55;;;1.30;;
34920;SDS011;21128;50.016;20.002;2022-09-29T10:43:41;3.13;;;1.30;;
34920;SDS011;21128;50.016;20.002;2022-09-29T10:46:46;4.70;;;1.43;;
34920;SDS011;21128;50.016;20.002;2022-09-29T10:49:17;4.37;;;2.20;;
34920;SDS011;21128;50.016;20.002;2022-09-29T10:52:01;3.70;;;2.00;;
34920;SDS011;21128;50.016;20.002;2022-09-29T10:54:53;9.65;;;2.50;;
34920;SDS011;21128;50.016;20.002;2022-09-29T10:57:27;3.90;;;1.65;;
34920;SDS011;21128;50.016;20.002;2022-09-29T11:00:04;3.33;;;1.87;;
34920;SDS011;21128;50.016;20.002;2022-09-29T11:02:35;5.17;;;1.73;;
34920;SDS011;21128;50.016;20.002;2022-09-29T11:05:16;3.07;;;1.80;;
34920;SDS011;21128;50.016;20.002;2022-09-29T11:07:51;2.40;;;1.53;;
34920;SDS011;21128;50.016;20.002;2022-09-29T11:10:28;3.23;;;1.90;;
34920;SDS011;21128;50.016;20.002;2022-09-29T11:13:29;3.07;;;1.60;;
34920;SDS011;21128;50.016;20.002;2022-09-29T11:19:10;5.23;;;2.30;;
34920;SDS011;21128;50.016;20.002;2022-09-29T11:35:53;2.45;;;1.40;;
34920;SDS011;21128;50.016;20.002;2022-09-29T11:39:04;4.07;;;2.20;;
34920;SDS011;21128;50.016;20.002;2022-09-29T11:50:25;8.20;;;1.50;;
34920;SDS011;21128;50.016;20.002;2022-09-29T11:59:23;6.30;;;1.00;;
34920;SDS011;21128;50.016;20.002;2022-09-29T12:08:28;2.75;;;1.10;;
34920;SDS011;21128;50.016;20.002;2022-09-29T12:11:21;4.77;;;1.70;;
34920;SDS011;21128;50.016;20.002;2022-09-29T12:14:08;2.95;;;1.55;;
34920;SDS011;21128;50.016;20.002;2022-09-29T12:16:56;1.77;;;1.10;;
34920;SDS011;21128;50.016;20.002;2022-09-29T12:19:27;3.85;;;1.42;;
34920;SDS011;21128;50.016;20.002;2022-09-29T12:21:59;4.67;;;1.53;;
34920;SDS011;21128;50.016;20.002;2022-09-29T12:26:58;1.77;;;1.10;;
34920;SDS011;21128;50.016;20.002;2022-09-29T12:29:43;7.77;;;3.20;;
34920;SDS011;21128;50.016;20.002;2022-09-29T12:32:27;7.37;;;4.70;;
34920;SDS011;21128;50.016;20.002;2022-09-29T12:34:58;3.70;;;2.70;;
34920;SDS011;21128;50.016;20.002;2022-09-29T12:37:38;3.43;;;1.60;;
34920;SDS011;21128;50.016;20.002;2022-09-29T12:50:51;7.20;;;2.10;;
34920;SDS011;21128;50.016;20.002;2022-09-29T12:53:36;4.43;;;2.10;;
34920;SDS011;21128;50.016;20.002;2022-09-29T12:56:25;8.33;;;2.40;;
34920;SDS011;21128;50.016;20.002;2022-09-29T12:58:58;3.00;;;1.53;;
34920;SDS011;21128;50.016;20.002;2022-09-29T13:01:34;3.20;;;1.85;;
34920;SDS011;21128;50.016;20.002;2022-09-29T13:20:59;4.80;;;1.80;;
34920;SDS011;21128;50.016;20.002;2022-09-29T13:26:21;6.40;;;1.80;;
34920;SDS011;21128;50.016;20.002;2022-09-29T13:28:54;3.17;;;1.87;;
34920;SDS011;21128;50.016;20.002;2022-09-29T13:31:26;6.40;;;1.90;;
34920;SDS011;21128;50.016;20.002;2022-09-29T13:33:55;3.67;;;1.70;;
34920;SDS011;21128;50.016;20.002;2022-09-29T13:36:27;6.03;;;1.87;;
34920;SDS011;21128;50.016;20.002;2022-09-29T13:39:03;5.30;;;1.90;;
34920;SDS011;21128;50.016;20.002;2022-09-29T13:41:39;2.07;;;1.70;;
34920;SDS011;21128;50.016;20.002;2022-09-29T13:46:43;5.57;;;2.07;;
34920;SDS011;21128;50.016;20.002;2022-09-29T13:51:50;2.33;;;1.40;;
34920;SDS011;21128;50.016;20.002;2022-09-29T13:54:22;3.30;;;1.60;;
34920;SDS011;21128;50.016;20.002;2022-09-29T14:04:55;7.80;;;1.43;;
34920;SDS011;21128;50.016;20.002;2022-09-29T14:10:17;6.75;;;1.90;;
34920;SDS011;21128;50.016;20.002;2022-09-29T14:12:52;4.43;;;1.80;;
34920;SDS011;21128;50.016;20.002;2022-09-29T14:15:34;3.00;;;1.43;;
34920;SDS011;21128;50.016;20.002;2022-09-29T14:18:10;7.70;;;2.02;;
34920;SDS011;21128;50.016;20.002;2022-09-29T14:20:58;2.83;;;1.50;;
34920;SDS011;21128;50.016;20.002;2022-09-29T14:29:19;5.50;;;1.70;;
34920;SDS011;21128;50.016;20.002;2022-09-29T14:31:59;3.90;;;2.20;;
34920;SDS011;21128;50.016;20.002;2022-09-29T14:34:34;4.27;;;2.50;;
34920;SDS011;21128;50.016;20.002;2022-09-29T14:37:01;6.42;;;2.40;;
34920;SDS011;21128;50.016;20.002;2022-09-29T14:39:29;5.83;;;2.23;;
34920;SDS011;21128;50.016;20.002;2022-09-29T14:41:56;6.93;;;2.50;;
34920;SDS011;21128;50.016;20.002;2022-09-29T14:44:31;7.50;;;2.07;;
34920;SDS011;21128;50.016;20.002;2022-09-29T14:54:00;4.93;;;2.10;;
34920;SDS011;21128;50.016;20.002;2022-09-29T14:56:52;3.67;;;1.90;;
34920;SDS011;21128;50.016;20.002;2022-09-29T14:59:38;2.40;;;1.90;;
34920;SDS011;21128;50.016;20.002;2022-09-29T15:04:48;4.83;;;2.03;;
34920;SDS011;21128;50.016;20.002;2022-09-29T15:07:16;3.03;;;1.70;;
34920;SDS011;21128;50.016;20.002;2022-09-29T15:14:53;7.73;;;2.47;;
34920;SDS011;21128;50.016;20.002;2022-09-29T15:25:33;11.60;;;4.43;;
34920;SDS011;21128;50.016;20.002;2022-09-29T15:28:03;7.80;;;4.27;;
34920;SDS011;21128;50.016;20.002;2022-09-29T15:30:59;7.07;;;2.90;;
34920;SDS011;21128;50.016;20.002;2022-09-29T15:33:30;7.83;;;2.90;;
34920;SDS011;21128;50.016;20.002;2022-09-29T15:36:14;9.10;;;3.30;;
34920;SDS011;21128;50.016;20.002;2022-09-29T15:39:01;8.00;;;3.10;;
34920;SDS011;21128;50.016;20.002;2022-09-29T15:41:32;7.87;;;3.23;;
34920;SDS011;21128;50.016;20.002;2022-09-29T15:44:17;7.63;;;3.50;;
34920;SDS011;21128;50.016;20.002;2022-09-29T15:46:55;9.00;;;4.07;;
34920;SDS011;21128;50.016;20.002;2022-09-29T15:49:35;7.70;;;3.33;;
34920;SDS011;21128;50.016;20.002;2022-09-29T15:52:23;6.10;;;3.67;;
34920;SDS011;21128;50.016;20.002;2022-09-29T15:55:10;5.43;;;3.60;;
34920;SDS011;21128;50.016;20.002;2022-09-29T15:57:43;7.83;;;3.33;;
34920;SDS011;21128;50.016;20.002;2022-09-29T16:03:18;7.33;;;3.20;;
34920;SDS011;21128;50.016;20.002;2022-09-29T16:05:59;7.40;;;3.63;;
34920;SDS011;21128;50.016;20.002;2022-09-29T16:08:37;4.77;;;2.73;;
34920;SDS011;21128;50.016;20.002;2022-09-29T16:11:23;5.17;;;3.47;;
34920;SDS011;21128;50.016;20.002;2022-09-29T16:14:01;3.65;;;2.50;;
34920;SDS011;21128;50.016;20.002;2022-09-29T16:16:48;4.90;;;2.90;;
34920;SDS011;21128;50.016;20.002;2022-09-29T16:19:25;7.37;;;3.10;;
34920;SDS011;21128;50.016;20.002;2022-09-29T16:22:14;8.13;;;3.07;;
34920;SDS011;21128;50.016;20.002;2022-09-29T16:25:22;4.63;;;2.90;;
34920;SDS011;21128;50.016;20.002;2022-09-29T16:27:55;6.12;;;3.20;;
34920;SDS011;21128;50.016;20.002;2022-09-29T16:30:35;10.47;;;3.97;;
34920;SDS011;21128;50.016;20.002;2022-09-29T16:38:33;13.60;;;4.47;;
34920;SDS011;21128;50.016;20.002;2022-09-29T16:46:52;9.60;;;4.80;;
34920;SDS011;21128;50.016;20.002;2022-09-29T16:49:35;13.73;;;5.50;;
34920;SDS011;21128;50.016;20.002;2022-09-29T16:52:18;9.47;;;4.73;;
34920;SDS011;21128;50.016;20.002;2022-09-29T16:55:14;18.33;;;5.73;;
34920;SDS011;21128;50.016;20.002;2022-09-29T17:00:39;9.57;;;5.97;;
34920;SDS011;21128;50.016;20.002;2022-09-29T17:03:13;8.33;;;5.77;;
34920;SDS011;21128;50.016;20.002;2022-09-29T17:05:47;9.13;;;6.27;;
34920;SDS011;21128;50.016;20.002;2022-09-29T17:08:21;10.90;;;6.10;;
34920;SDS011;21128;50.016;20.002;2022-09-29T17:10:51;11.53;;;6.40;;
34920;SDS011;21128;50.016;20.002;2022-09-29T17:13:19;11.27;;;5.83;;
34920;SDS011;21128;50.016;20.002;2022-09-29T17:16:06;9.97;;;6.00;;
34920;SDS011;21128;50.016;20.002;2022-09-29T17:18:36;10.70;;;6.33;;
34920;SDS011;21128;50.016;20.002;2022-09-29T17:21:09;12.80;;;6.93;;
34920;SDS011;21128;50.016;20.002;2022-09-29T17:23:36;13.60;;;6.50;;
34920;SDS011;21128;50.016;20.002;2022-09-29T17:26:13;10.53;;;6.17;;
34920;SDS011;21128;50.016;20.002;2022-09-29T17:29:04;10.33;;;5.70;;
34920;SDS011;21128;50.016;20.002;2022-09-29T17:31:32;10.00;;;6.57;;
34920;SDS011;21128;50.016;20.002;2022-09-29T17:34:06;10.73;;;6.63;;
34920;SDS011;21128;50.016;20.002;2022-09-29T17:36:39;14.63;;;7.83;;
34920;SDS011;21128;50.016;20.002;2022-09-29T17:39:07;12.90;;;7.53;;
34920;SDS011;21128;50.016;20.002;2022-09-29T17:41:41;14.30;;;8.30;;
34920;SDS011;21128;50.016;20.002;2022-09-29T17:44:08;14.73;;;8.00;;
34920;SDS011;21128;50.016;20.002;2022-09-29T17:46:42;13.53;;;8.97;;
34920;SDS011;21128;50.016;20.002;2022-09-29T17:49:16;14.33;;;8.40;;
34920;SDS011;21128;50.016;20.002;2022-09-29T17:51:43;18.67;;;9.17;;
34920;SDS011;21128;50.016;20.002;2022-09-29T17:54:10;19.90;;;9.33;;
34920;SDS011;21128;50.016;20.002;2022-09-29T17:56:40;12.93;;;8.73;;
34920;SDS011;21128;50.016;20.002;2022-09-29T17:59:21;14.27;;;9.00;;
34920;SDS011;21128;50.016;20.002;2022-09-29T18:01:49;13.90;;;9.10;;
34920;SDS011;21128;50.016;20.002;2022-09-29T18:04:22;13.97;;;8.57;;
34920;SDS011;21128;50.016;20.002;2022-09-29T18:07:01;11.93;;;8.90;;
34920;SDS011;21128;50.016;20.002;2022-09-29T18:09:28;12.33;;;8.37;;
34920;SDS011;21128;50.016;20.002;2022-09-29T18:11:55;12.73;;;8.03;;
34920;SDS011;21128;50.016;20.002;2022-09-29T18:14:30;12.33;;;8.07;;
34920;SDS011;21128;50.016;20.002;2022-09-29T18:17:01;13.60;;;7.43;;
34920;SDS011;21128;50.016;20.002;2022-09-29T18:19:31;14.43;;;8.83;;
34920;SDS011;21128;50.016;20.002;2022-09-29T18:22:01;14.23;;;8.70;;
34920;SDS011;21128;50.016;20.002;2022-09-29T18:24:32;17.63;;;8.60;;
34920;SDS011;21128;50.016;20.002;2022-09-29T18:26:59;19.25;;;9.65;;
34920;SDS011;21128;50.016;20.002;2022-09-29T18:29:26;17.45;;;9.43;;
34920;SDS011;21128;50.016;20.002;2022-09-29T18:31:57;12.97;;;9.17;;
34920;SDS011;21128;50.016;20.002;2022-09-29T18:34:24;12.10;;;8.70;;